sensor_id;sensor_type;location;lat;lon;timestamp;temperature;humidity
6377;DHT22;3221;48.858;10.128;2024-02-21T00:00:39;5.80;99.90
6377;DHT22;3221;48.858;10.128;2024-02-21T00:03:07;5.90;99.90
6377;DHT22;3221;48.858;10.128;2024-02-21T00:05:34;5.90;99.90
6377;DHT22;3221;48.858;10.128;2024-02-21T00:08:02;5.80;99.90
6377;DHT22;3221;48.858;10.128;2024-02-21T00:10:30;5.90;99.90
6377;DHT22;3221;48.858;10.128;2024-02-21T00:12:59;5.90;99.90
6377;DHT22;3221;48.858;10.128;2024-02-21T00:15:28;6.00;99.90
6377;DHT22;3221;48.858;10.128;2024-02-21T00:17:55;5.90;99.90
6377;DHT22;3221;48.858;10.128;2024-02-21T00:20:22;5.80;99.90
6377;DHT22;3221;48.858;10.128;2024-02-21T00:22:49;6.00;99.90
6377;DHT22;3221;48.858;10.128;2024-02-21T00:25:16;5.80;99.90
6377;DHT22;3221;48.858;10.128;2024-02-21T00:27:43;5.80;99.90
6377;DHT22;3221;48.858;10.128;2024-02-21T00:30:10;5.90;99.90
6377;DHT22;3221;48.858;10.128;2024-02-21T00:32:37;5.90;99.90
6377;DHT22;3221;48.858;10.128;2024-02-21T00:35:04;5.90;99.90
6377;DHT22;3221;48.858;10.128;2024-02-21T00:37:31;5.90;99.90
6377;DHT22;3221;48.858;10.128;2024-02-21T00:39:58;5.90;99.90
6377;DHT22;3221;48.858;10.128;2024-02-21T00:42:25;5.80;99.90
6377;DHT22;3221;48.858;10.128;2024-02-21T00:44:52;5.80;99.90
6377;DHT22;3221;48.858;10.128;2024-02-21T00:47:19;5.80;99.90
6377;DHT22;3221;48.858;10.128;2024-02-21T00:49:46;5.80;99.90
6377;DHT22;3221;48.858;10.128;2024-02-21T00:52:13;5.80;99.90
6377;DHT22;3221;48.858;10.128;2024-02-21T00:54:40;5.70;99.90
6377;DHT22;3221;48.858;10.128;2024-02-21T00:57:19;5.80;99.90
6377;DHT22;3221;48.858;10.128;2024-02-21T00:59:46;5.70;99.90
6377;DHT22;3221;48.858;10.128;2024-02-21T01:02:13;5.70;99.90
6377;DHT22;3221;48.858;10.128;2024-02-21T01:04:40;5.80;99.90
6377;DHT22;3221;48.858;10.128;2024-02-21T01:07:07;5.80;99.90
6377;DHT22;3221;48.858;10.128;2024-02-21T01:09:34;5.80;99.90
6377;DHT22;3221;48.858;10.128;2024-02-21T01:12:01;5.70;99.90
6377;DHT22;3221;48.858;10.128;2024-02-21T01:14:28;5.80;99.90
6377;DHT22;3221;48.858;10.128;2024-02-21T01:16:55;5.80;99.90
6377;DHT22;3221;48.858;10.128;2024-02-21T01:19:22;5.90;99.90
6377;DHT22;3221;48.858;10.128;2024-02-21T01:21:49;5.80;99.90
6377;DHT22;3221;48.858;10.128;2024-02-21T01:24:16;5.90;99.90
6377;DHT22;3221;48.858;10.128;2024-02-21T01:26:43;5.80;99.90
6377;DHT22;3221;48.858;10.128;2024-02-21T01:29:10;5.70;99.90
6377;DHT22;3221;48.858;10.128;2024-02-21T01:31:37;5.60;99.90
6377;DHT22;3221;48.858;10.128;2024-02-21T01:34:04;5.60;99.90
6377;DHT22;3221;48.858;10.128;2024-02-21T01:36:31;5.50;99.90
6377;DHT22;3221;48.858;10.128;2024-02-21T01:38:58;5.60;99.90
6377;DHT22;3221;48.858;10.128;2024-02-21T01:41:25;5.60;99.90
6377;DHT22;3221;48.858;10.128;2024-02-21T01:43:51;5.70;99.90
6377;DHT22;3221;48.858;10.128;2024-02-21T01:46:19;5.70;99.90
6377;DHT22;3221;48.858;10.128;2024-02-21T01:48:46;5.70;99.90
6377;DHT22;3221;48.858;10.128;2024-02-21T01:51:13;5.80;99.90
6377;DHT22;3221;48.858;10.128;2024-02-21T01:53:44;5.90;99.90
6377;DHT22;3221;48.858;10.128;2024-02-21T01:56:13;5.70;99.90
6377;DHT22;3221;48.858;10.128;2024-02-21T01:58:42;6.00;99.90
6377;DHT22;3221;48.858;10.128;2024-02-21T02:01:10;5.90;99.90
6377;DHT22;3221;48.858;10.128;2024-02-21T02:03:37;5.80;99.90
6377;DHT22;3221;48.858;10.128;2024-02-21T02:06:07;5.90;99.90
6377;DHT22;3221;48.858;10.128;2024-02-21T02:08:35;5.80;99.90
6377;DHT22;3221;48.858;10.128;2024-02-21T02:11:02;5.80;99.90
6377;DHT22;3221;48.858;10.128;2024-02-21T02:13:29;5.80;99.90
6377;DHT22;3221;48.858;10.128;2024-02-21T02:15:56;5.80;99.90
6377;DHT22;3221;48.858;10.128;2024-02-21T02:18:23;5.80;99.90
6377;DHT22;3221;48.858;10.128;2024-02-21T02:20:50;5.80;99.90
6377;DHT22;3221;48.858;10.128;2024-02-21T02:23:28;6.00;99.90
6377;DHT22;3221;48.858;10.128;2024-02-21T02:25:55;5.70;99.90
6377;DHT22;3221;48.858;10.128;2024-02-21T02:28:23;5.70;99.90
6377;DHT22;3221;48.858;10.128;2024-02-21T02:30:50;5.70;99.90
6377;DHT22;3221;48.858;10.128;2024-02-21T02:33:17;5.80;99.90
6377;DHT22;3221;48.858;10.128;2024-02-21T02:35:45;5.60;99.90
6377;DHT22;3221;48.858;10.128;2024-02-21T02:38:12;5.50;99.90
6377;DHT22;3221;48.858;10.128;2024-02-21T02:40:41;5.50;99.90
6377;DHT22;3221;48.858;10.128;2024-02-21T02:43:08;5.80;99.90
6377;DHT22;3221;48.858;10.128;2024-02-21T02:45:36;5.60;99.90
6377;DHT22;3221;48.858;10.128;2024-02-21T02:48:03;5.60;99.90
6377;DHT22;3221;48.858;10.128;2024-02-21T02:50:30;5.60;99.90
6377;DHT22;3221;48.858;10.128;2024-02-21T02:52:57;5.60;99.90
6377;DHT22;3221;48.858;10.128;2024-02-21T02:55:24;5.50;99.90
6377;DHT22;3221;48.858;10.128;2024-02-21T02:57:53;5.50;99.90
6377;DHT22;3221;48.858;10.128;2024-02-21T03:00:20;5.60;99.90
6377;DHT22;3221;48.858;10.128;2024-02-21T03:02:48;5.50;99.90
6377;DHT22;3221;48.858;10.128;2024-02-21T03:05:18;5.50;99.90
6377;DHT22;3221;48.858;10.128;2024-02-21T03:07:46;5.70;99.90
6377;DHT22;3221;48.858;10.128;2024-02-21T03:10:14;5.50;99.90
6377;DHT22;3221;48.858;10.128;2024-02-21T03:12:43;5.50;99.90
6377;DHT22;3221;48.858;10.128;2024-02-21T03:15:10;5.40;99.90
6377;DHT22;3221;48.858;10.128;2024-02-21T03:17:37;5.50;99.90
6377;DHT22;3221;48.858;10.128;2024-02-21T03:20:04;5.40;99.90
6377;DHT22;3221;48.858;10.128;2024-02-21T03:22:40;5.40;99.90
6377;DHT22;3221;48.858;10.128;2024-02-21T03:25:11;5.30;99.90
6377;DHT22;3221;48.858;10.128;2024-02-21T03:27:39;5.40;99.90
6377;DHT22;3221;48.858;10.128;2024-02-21T03:30:06;5.40;99.90
6377;DHT22;3221;48.858;10.128;2024-02-21T03:32:33;5.50;99.90
6377;DHT22;3221;48.858;10.128;2024-02-21T03:35:00;5.50;99.90
6377;DHT22;3221;48.858;10.128;2024-02-21T03:37:28;5.50;99.90
6377;DHT22;3221;48.858;10.128;2024-02-21T03:39:55;5.40;99.90
6377;DHT22;3221;48.858;10.128;2024-02-21T03:42:22;5.40;99.90
6377;DHT22;3221;48.858;10.128;2024-02-21T03:44:49;5.40;99.90
6377;DHT22;3221;48.858;10.128;2024-02-21T03:47:16;5.40;99.90
6377;DHT22;3221;48.858;10.128;2024-02-21T03:49:43;5.50;99.90
6377;DHT22;3221;48.858;10.128;2024-02-21T03:52:10;5.30;99.90
6377;DHT22;3221;48.858;10.128;2024-02-21T03:54:37;5.40;99.90
6377;DHT22;3221;48.858;10.128;2024-02-21T03:57:05;5.40;99.90
6377;DHT22;3221;48.858;10.128;2024-02-21T03:59:32;5.40;99.90
6377;DHT22;3221;48.858;10.128;2024-02-21T04:01:59;5.50;99.90
6377;DHT22;3221;48.858;10.128;2024-02-21T04:04:27;5.70;99.90
6377;DHT22;3221;48.858;10.128;2024-02-21T04:06:54;5.80;99.90
6377;DHT22;3221;48.858;10.128;2024-02-21T04:09:21;5.80;99.90
6377;DHT22;3221;48.858;10.128;2024-02-21T04:11:47;5.50;99.90
6377;DHT22;3221;48.858;10.128;2024-02-21T04:14:14;5.60;99.90
6377;DHT22;3221;48.858;10.128;2024-02-21T04:16:41;5.80;99.90
6377;DHT22;3221;48.858;10.128;2024-02-21T04:19:08;5.70;99.90
6377;DHT22;3221;48.858;10.128;2024-02-21T04:21:36;5.60;99.90
6377;DHT22;3221;48.858;10.128;2024-02-21T04:24:03;5.50;99.90
6377;DHT22;3221;48.858;10.128;2024-02-21T04:26:33;5.50;99.90
6377;DHT22;3221;48.858;10.128;2024-02-21T04:29:00;5.50;99.90
6377;DHT22;3221;48.858;10.128;2024-02-21T04:31:28;5.40;99.90
6377;DHT22;3221;48.858;10.128;2024-02-21T04:33:56;5.50;99.90
6377;DHT22;3221;48.858;10.128;2024-02-21T04:36:24;5.70;99.90
6377;DHT22;3221;48.858;10.128;2024-02-21T04:38:51;5.40;99.90
6377;DHT22;3221;48.858;10.128;2024-02-21T04:41:18;5.40;99.90
6377;DHT22;3221;48.858;10.128;2024-02-21T04:43:46;5.60;99.90
6377;DHT22;3221;48.858;10.128;2024-02-21T04:46:14;5.60;99.90
6377;DHT22;3221;48.858;10.128;2024-02-21T04:48:41;5.90;99.90
6377;DHT22;3221;48.858;10.128;2024-02-21T04:51:08;5.70;99.90
6377;DHT22;3221;48.858;10.128;2024-02-21T04:53:35;5.80;99.90
6377;DHT22;3221;48.858;10.128;2024-02-21T04:56:01;5.70;99.90
6377;DHT22;3221;48.858;10.128;2024-02-21T04:58:29;5.70;99.90
6377;DHT22;3221;48.858;10.128;2024-02-21T05:00:55;5.60;99.90
6377;DHT22;3221;48.858;10.128;2024-02-21T05:03:23;5.80;99.90
6377;DHT22;3221;48.858;10.128;2024-02-21T05:05:50;5.60;99.90
6377;DHT22;3221;48.858;10.128;2024-02-21T05:08:17;5.50;99.90
6377;DHT22;3221;48.858;10.128;2024-02-21T05:10:44;5.50;99.90
6377;DHT22;3221;48.858;10.128;2024-02-21T05:13:11;5.60;99.90
6377;DHT22;3221;48.858;10.128;2024-02-21T05:15:38;5.30;99.90
6377;DHT22;3221;48.858;10.128;2024-02-21T05:18:05;5.30;99.90
6377;DHT22;3221;48.858;10.128;2024-02-21T05:20:32;5.30;99.90
6377;DHT22;3221;48.858;10.128;2024-02-21T05:22:59;5.30;99.90
6377;DHT22;3221;48.858;10.128;2024-02-21T05:25:26;5.30;99.90
6377;DHT22;3221;48.858;10.128;2024-02-21T05:27:53;5.40;99.90
6377;DHT22;3221;48.858;10.128;2024-02-21T05:30:20;5.20;99.90
6377;DHT22;3221;48.858;10.128;2024-02-21T05:32:47;5.20;99.90
6377;DHT22;3221;48.858;10.128;2024-02-21T05:35:14;5.20;99.90
6377;DHT22;3221;48.858;10.128;2024-02-21T05:37:41;5.30;99.90
6377;DHT22;3221;48.858;10.128;2024-02-21T05:40:09;5.40;99.90
6377;DHT22;3221;48.858;10.128;2024-02-21T05:42:38;5.40;99.90
6377;DHT22;3221;48.858;10.128;2024-02-21T05:45:05;5.30;99.90
6377;DHT22;3221;48.858;10.128;2024-02-21T05:47:32;5.20;99.90
6377;DHT22;3221;48.858;10.128;2024-02-21T05:49:59;5.20;99.90
6377;DHT22;3221;48.858;10.128;2024-02-21T05:52:26;5.10;99.90
6377;DHT22;3221;48.858;10.128;2024-02-21T05:54:52;5.10;99.90
6377;DHT22;3221;48.858;10.128;2024-02-21T05:57:20;5.10;99.90
6377;DHT22;3221;48.858;10.128;2024-02-21T05:59:46;5.00;99.90
6377;DHT22;3221;48.858;10.128;2024-02-21T06:02:13;5.00;99.90
6377;DHT22;3221;48.858;10.128;2024-02-21T06:04:41;5.00;99.90
6377;DHT22;3221;48.858;10.128;2024-02-21T06:07:09;5.00;99.90
6377;DHT22;3221;48.858;10.128;2024-02-21T06:09:36;5.00;99.90
6377;DHT22;3221;48.858;10.128;2024-02-21T06:12:03;4.90;99.90
6377;DHT22;3221;48.858;10.128;2024-02-21T06:14:30;4.90;99.90
6377;DHT22;3221;48.858;10.128;2024-02-21T06:16:57;4.90;99.90
6377;DHT22;3221;48.858;10.128;2024-02-21T06:19:24;4.90;99.90
6377;DHT22;3221;48.858;10.128;2024-02-21T06:21:51;4.90;99.90
6377;DHT22;3221;48.858;10.128;2024-02-21T06:24:18;4.80;99.90
6377;DHT22;3221;48.858;10.128;2024-02-21T06:26:45;4.80;99.90
6377;DHT22;3221;48.858;10.128;2024-02-21T06:29:12;4.80;99.90
6377;DHT22;3221;48.858;10.128;2024-02-21T06:31:40;4.80;99.90
6377;DHT22;3221;48.858;10.128;2024-02-21T06:34:07;4.80;99.90
6377;DHT22;3221;48.858;10.128;2024-02-21T06:36:34;4.80;99.90
6377;DHT22;3221;48.858;10.128;2024-02-21T06:39:01;4.80;99.90
6377;DHT22;3221;48.858;10.128;2024-02-21T06:41:31;4.80;99.90
6377;DHT22;3221;48.858;10.128;2024-02-21T06:43:59;4.80;99.90
6377;DHT22;3221;48.858;10.128;2024-02-21T06:46:27;4.70;99.90
6377;DHT22;3221;48.858;10.128;2024-02-21T06:48:58;4.70;99.90
6377;DHT22;3221;48.858;10.128;2024-02-21T06:51:26;4.70;99.90
6377;DHT22;3221;48.858;10.128;2024-02-21T06:53:56;4.70;99.90
6377;DHT22;3221;48.858;10.128;2024-02-21T06:56:24;4.70;99.90
6377;DHT22;3221;48.858;10.128;2024-02-21T06:58:56;4.70;99.90
6377;DHT22;3221;48.858;10.128;2024-02-21T07:01:23;4.70;99.90
6377;DHT22;3221;48.858;10.128;2024-02-21T07:03:50;4.70;99.90
6377;DHT22;3221;48.858;10.128;2024-02-21T07:06:17;4.80;99.90
6377;DHT22;3221;48.858;10.128;2024-02-21T07:08:44;4.90;99.90
6377;DHT22;3221;48.858;10.128;2024-02-21T07:11:11;4.90;99.90
6377;DHT22;3221;48.858;10.128;2024-02-21T07:13:38;4.90;99.90
6377;DHT22;3221;48.858;10.128;2024-02-21T07:16:06;4.90;99.90
6377;DHT22;3221;48.858;10.128;2024-02-21T07:18:34;5.00;99.90
6377;DHT22;3221;48.858;10.128;2024-02-21T07:21:01;5.10;99.90
6377;DHT22;3221;48.858;10.128;2024-02-21T07:23:28;5.00;99.90
6377;DHT22;3221;48.858;10.128;2024-02-21T07:25:55;5.20;99.90
6377;DHT22;3221;48.858;10.128;2024-02-21T07:28:22;5.30;99.90
6377;DHT22;3221;48.858;10.128;2024-02-21T07:30:49;5.40;99.90
6377;DHT22;3221;48.858;10.128;2024-02-21T07:33:16;5.50;99.90
6377;DHT22;3221;48.858;10.128;2024-02-21T07:35:43;5.50;99.90
6377;DHT22;3221;48.858;10.128;2024-02-21T07:38:11;5.60;99.90
6377;DHT22;3221;48.858;10.128;2024-02-21T07:40:40;5.60;99.90
6377;DHT22;3221;48.858;10.128;2024-02-21T07:43:07;5.70;99.90
6377;DHT22;3221;48.858;10.128;2024-02-21T07:45:34;5.60;99.90
6377;DHT22;3221;48.858;10.128;2024-02-21T07:48:02;5.70;99.90
6377;DHT22;3221;48.858;10.128;2024-02-21T07:50:29;5.70;99.90
6377;DHT22;3221;48.858;10.128;2024-02-21T07:52:56;5.80;99.90
6377;DHT22;3221;48.858;10.128;2024-02-21T07:55:23;5.90;99.90
6377;DHT22;3221;48.858;10.128;2024-02-21T07:57:50;5.90;99.90
6377;DHT22;3221;48.858;10.128;2024-02-21T08:00:17;6.00;99.90
6377;DHT22;3221;48.858;10.128;2024-02-21T08:02:48;5.90;99.90
6377;DHT22;3221;48.858;10.128;2024-02-21T08:05:15;6.10;99.90
6377;DHT22;3221;48.858;10.128;2024-02-21T08:07:42;5.90;99.90
6377;DHT22;3221;48.858;10.128;2024-02-21T08:10:09;6.00;99.90
6377;DHT22;3221;48.858;10.128;2024-02-21T08:12:36;5.90;99.90
6377;DHT22;3221;48.858;10.128;2024-02-21T08:15:03;6.00;99.90
6377;DHT22;3221;48.858;10.128;2024-02-21T08:17:30;6.10;99.90
6377;DHT22;3221;48.858;10.128;2024-02-21T08:19:57;6.30;99.90
6377;DHT22;3221;48.858;10.128;2024-02-21T08:22:24;6.40;99.90
6377;DHT22;3221;48.858;10.128;2024-02-21T08:24:53;6.20;99.90
6377;DHT22;3221;48.858;10.128;2024-02-21T08:27:20;6.30;99.90
6377;DHT22;3221;48.858;10.128;2024-02-21T08:29:47;6.60;99.90
6377;DHT22;3221;48.858;10.128;2024-02-21T08:32:14;6.50;99.90
6377;DHT22;3221;48.858;10.128;2024-02-21T08:34:41;6.70;99.90
6377;DHT22;3221;48.858;10.128;2024-02-21T08:37:08;6.70;99.90
6377;DHT22;3221;48.858;10.128;2024-02-21T08:39:37;6.70;99.90
6377;DHT22;3221;48.858;10.128;2024-02-21T08:42:05;6.70;99.90
6377;DHT22;3221;48.858;10.128;2024-02-21T08:44:32;6.80;99.90
6377;DHT22;3221;48.858;10.128;2024-02-21T08:46:59;6.80;99.90
6377;DHT22;3221;48.858;10.128;2024-02-21T08:49:26;7.00;99.90
6377;DHT22;3221;48.858;10.128;2024-02-21T08:52:01;6.90;99.90
6377;DHT22;3221;48.858;10.128;2024-02-21T08:54:28;6.90;99.90
6377;DHT22;3221;48.858;10.128;2024-02-21T08:56:55;7.10;99.90
6377;DHT22;3221;48.858;10.128;2024-02-21T08:59:23;7.10;99.90
6377;DHT22;3221;48.858;10.128;2024-02-21T09:01:51;7.10;99.90
6377;DHT22;3221;48.858;10.128;2024-02-21T09:04:19;7.20;99.90
6377;DHT22;3221;48.858;10.128;2024-02-21T09:06:46;7.20;99.90
6377;DHT22;3221;48.858;10.128;2024-02-21T09:09:13;7.20;99.90
6377;DHT22;3221;48.858;10.128;2024-02-21T09:11:40;7.40;99.90
6377;DHT22;3221;48.858;10.128;2024-02-21T09:14:07;7.30;99.90
6377;DHT22;3221;48.858;10.128;2024-02-21T09:16:34;7.30;99.90
6377;DHT22;3221;48.858;10.128;2024-02-21T09:19:01;7.50;99.90
6377;DHT22;3221;48.858;10.128;2024-02-21T09:21:28;7.40;99.90
6377;DHT22;3221;48.858;10.128;2024-02-21T09:23:55;7.50;99.90
6377;DHT22;3221;48.858;10.128;2024-02-21T09:26:26;7.40;99.90
6377;DHT22;3221;48.858;10.128;2024-02-21T09:28:53;7.10;99.90
6377;DHT22;3221;48.858;10.128;2024-02-21T09:31:20;7.10;99.90
6377;DHT22;3221;48.858;10.128;2024-02-21T09:33:47;7.10;99.90
6377;DHT22;3221;48.858;10.128;2024-02-21T09:36:14;7.10;99.90
6377;DHT22;3221;48.858;10.128;2024-02-21T09:38:41;7.40;99.90
6377;DHT22;3221;48.858;10.128;2024-02-21T09:43:37;7.00;99.90
6377;DHT22;3221;48.858;10.128;2024-02-21T09:46:07;7.30;99.90
6377;DHT22;3221;48.858;10.128;2024-02-21T09:51:36;7.20;99.90
6377;DHT22;3221;48.858;10.128;2024-02-21T09:54:06;7.10;99.90
6377;DHT22;3221;48.858;10.128;2024-02-21T09:56:45;7.20;99.90
6377;DHT22;3221;48.858;10.128;2024-02-21T09:59:16;7.20;99.90
6377;DHT22;3221;48.858;10.128;2024-02-21T10:01:44;7.00;99.90
6377;DHT22;3221;48.858;10.128;2024-02-21T10:04:11;7.20;99.90
6377;DHT22;3221;48.858;10.128;2024-02-21T10:06:38;7.30;99.90
6377;DHT22;3221;48.858;10.128;2024-02-21T10:09:06;7.20;99.90
6377;DHT22;3221;48.858;10.128;2024-02-21T10:11:33;7.30;99.90
6377;DHT22;3221;48.858;10.128;2024-02-21T10:14:07;7.20;99.90
6377;DHT22;3221;48.858;10.128;2024-02-21T10:16:35;7.20;99.90
6377;DHT22;3221;48.858;10.128;2024-02-21T10:19:04;7.10;99.90
6377;DHT22;3221;48.858;10.128;2024-02-21T10:21:31;7.20;99.90
6377;DHT22;3221;48.858;10.128;2024-02-21T10:23:58;7.30;99.90
6377;DHT22;3221;48.858;10.128;2024-02-21T10:26:25;7.30;99.90
6377;DHT22;3221;48.858;10.128;2024-02-21T10:28:52;7.40;99.90
6377;DHT22;3221;48.858;10.128;2024-02-21T10:31:25;7.40;99.90
6377;DHT22;3221;48.858;10.128;2024-02-21T10:34:02;7.30;99.90
6377;DHT22;3221;48.858;10.128;2024-02-21T10:36:30;7.30;99.90
6377;DHT22;3221;48.858;10.128;2024-02-21T10:38:57;7.10;99.90
6377;DHT22;3221;48.858;10.128;2024-02-21T10:41:24;7.20;99.90
6377;DHT22;3221;48.858;10.128;2024-02-21T10:43:55;7.20;99.90
6377;DHT22;3221;48.858;10.128;2024-02-21T10:46:23;7.30;99.90
6377;DHT22;3221;48.858;10.128;2024-02-21T10:49:10;7.20;99.90
6377;DHT22;3221;48.858;10.128;2024-02-21T10:51:42;7.40;99.90
6377;DHT22;3221;48.858;10.128;2024-02-21T10:54:23;7.40;99.90
6377;DHT22;3221;48.858;10.128;2024-02-21T10:56:54;7.40;99.90
6377;DHT22;3221;48.858;10.128;2024-02-21T10:59:23;7.50;99.90
6377;DHT22;3221;48.858;10.128;2024-02-21T11:01:50;7.50;99.90
6377;DHT22;3221;48.858;10.128;2024-02-21T11:04:22;7.60;99.90
6377;DHT22;3221;48.858;10.128;2024-02-21T11:06:50;7.50;99.90
6377;DHT22;3221;48.858;10.128;2024-02-21T11:09:29;7.50;99.90
6377;DHT22;3221;48.858;10.128;2024-02-21T11:12:03;7.70;99.90
6377;DHT22;3221;48.858;10.128;2024-02-21T11:14:31;7.80;99.90
6377;DHT22;3221;48.858;10.128;2024-02-21T11:17:19;7.60;99.90
6377;DHT22;3221;48.858;10.128;2024-02-21T11:19:48;7.80;99.90
6377;DHT22;3221;48.858;10.128;2024-02-21T11:22:19;7.90;99.90
6377;DHT22;3221;48.858;10.128;2024-02-21T11:24:49;8.00;99.90
6377;DHT22;3221;48.858;10.128;2024-02-21T11:27:20;7.80;99.90
6377;DHT22;3221;48.858;10.128;2024-02-21T11:29:55;7.70;99.90
6377;DHT22;3221;48.858;10.128;2024-02-21T11:32:22;7.80;99.90
6377;DHT22;3221;48.858;10.128;2024-02-21T11:35:00;7.70;99.90
6377;DHT22;3221;48.858;10.128;2024-02-21T11:37:31;7.90;99.90
6377;DHT22;3221;48.858;10.128;2024-02-21T11:40:01;7.80;99.90
6377;DHT22;3221;48.858;10.128;2024-02-21T11:42:30;8.10;99.90
6377;DHT22;3221;48.858;10.128;2024-02-21T11:44:57;8.10;99.90
6377;DHT22;3221;48.858;10.128;2024-02-21T11:47:24;8.20;99.90
6377;DHT22;3221;48.858;10.128;2024-02-21T11:49:52;8.10;99.90
6377;DHT22;3221;48.858;10.128;2024-02-21T11:52:23;8.40;99.90
6377;DHT22;3221;48.858;10.128;2024-02-21T11:54:53;8.60;99.90
6377;DHT22;3221;48.858;10.128;2024-02-21T11:57:21;8.30;99.90
6377;DHT22;3221;48.858;10.128;2024-02-21T11:59:48;8.20;99.90
6377;DHT22;3221;48.858;10.128;2024-02-21T12:02:24;8.20;99.90
6377;DHT22;3221;48.858;10.128;2024-02-21T12:04:51;8.20;99.90
6377;DHT22;3221;48.858;10.128;2024-02-21T12:07:18;8.50;99.90
6377;DHT22;3221;48.858;10.128;2024-02-21T12:09:45;8.50;99.90
6377;DHT22;3221;48.858;10.128;2024-02-21T12:12:12;8.30;99.90
6377;DHT22;3221;48.858;10.128;2024-02-21T12:14:39;8.40;99.90
6377;DHT22;3221;48.858;10.128;2024-02-21T12:17:06;8.30;99.90
6377;DHT22;3221;48.858;10.128;2024-02-21T12:19:34;8.30;99.90
6377;DHT22;3221;48.858;10.128;2024-02-21T12:22:01;8.30;99.90
6377;DHT22;3221;48.858;10.128;2024-02-21T12:24:33;8.20;99.90
6377;DHT22;3221;48.858;10.128;2024-02-21T12:27:00;8.30;99.90
6377;DHT22;3221;48.858;10.128;2024-02-21T12:29:30;8.20;99.90
6377;DHT22;3221;48.858;10.128;2024-02-21T12:31:57;8.50;99.90
6377;DHT22;3221;48.858;10.128;2024-02-21T12:34:24;8.40;99.90
6377;DHT22;3221;48.858;10.128;2024-02-21T12:36:54;8.40;99.90
6377;DHT22;3221;48.858;10.128;2024-02-21T12:39:21;8.40;99.90
6377;DHT22;3221;48.858;10.128;2024-02-21T12:41:48;8.80;99.90
6377;DHT22;3221;48.858;10.128;2024-02-21T12:44:15;8.80;99.90
6377;DHT22;3221;48.858;10.128;2024-02-21T12:46:44;8.70;99.90
6377;DHT22;3221;48.858;10.128;2024-02-21T12:49:11;8.70;99.90
6377;DHT22;3221;48.858;10.128;2024-02-21T12:51:38;8.70;99.90
6377;DHT22;3221;48.858;10.128;2024-02-21T12:54:06;8.70;99.90
6377;DHT22;3221;48.858;10.128;2024-02-21T12:56:33;8.70;99.90
6377;DHT22;3221;48.858;10.128;2024-02-21T12:58:59;8.50;99.90
6377;DHT22;3221;48.858;10.128;2024-02-21T13:01:27;8.50;99.90
6377;DHT22;3221;48.858;10.128;2024-02-21T13:03:54;8.70;99.90
6377;DHT22;3221;48.858;10.128;2024-02-21T13:06:22;8.70;99.90
6377;DHT22;3221;48.858;10.128;2024-02-21T13:08:50;8.60;99.90
6377;DHT22;3221;48.858;10.128;2024-02-21T13:11:17;8.60;99.90
6377;DHT22;3221;48.858;10.128;2024-02-21T13:13:45;8.70;99.90
6377;DHT22;3221;48.858;10.128;2024-02-21T13:16:11;8.80;99.90
6377;DHT22;3221;48.858;10.128;2024-02-21T13:18:38;8.80;99.90
6377;DHT22;3221;48.858;10.128;2024-02-21T13:21:07;8.80;99.90
6377;DHT22;3221;48.858;10.128;2024-02-21T13:23:33;8.80;99.90
6377;DHT22;3221;48.858;10.128;2024-02-21T13:26:00;9.00;99.90
6377;DHT22;3221;48.858;10.128;2024-02-21T13:28:27;9.00;99.90
6377;DHT22;3221;48.858;10.128;2024-02-21T13:30:54;9.00;99.90
6377;DHT22;3221;48.858;10.128;2024-02-21T13:33:21;8.90;99.90
6377;DHT22;3221;48.858;10.128;2024-02-21T13:35:48;9.10;99.90
6377;DHT22;3221;48.858;10.128;2024-02-21T13:38:16;9.40;99.90
6377;DHT22;3221;48.858;10.128;2024-02-21T13:40:43;9.30;99.90
6377;DHT22;3221;48.858;10.128;2024-02-21T13:43:09;9.50;99.90
6377;DHT22;3221;48.858;10.128;2024-02-21T13:45:38;9.50;99.90
6377;DHT22;3221;48.858;10.128;2024-02-21T13:48:05;9.40;99.90
6377;DHT22;3221;48.858;10.128;2024-02-21T13:50:33;9.60;99.90
6377;DHT22;3221;48.858;10.128;2024-02-21T13:53:08;9.60;99.90
6377;DHT22;3221;48.858;10.128;2024-02-21T13:55:36;9.50;99.90
6377;DHT22;3221;48.858;10.128;2024-02-21T13:58:03;9.40;99.90
6377;DHT22;3221;48.858;10.128;2024-02-21T14:00:30;9.30;99.90
6377;DHT22;3221;48.858;10.128;2024-02-21T14:02:59;9.30;99.90
6377;DHT22;3221;48.858;10.128;2024-02-21T14:05:27;9.40;99.90
6377;DHT22;3221;48.858;10.128;2024-02-21T14:07:55;9.50;99.90
6377;DHT22;3221;48.858;10.128;2024-02-21T14:10:22;9.50;99.90
6377;DHT22;3221;48.858;10.128;2024-02-21T14:12:49;9.60;99.90
6377;DHT22;3221;48.858;10.128;2024-02-21T14:15:16;9.60;99.90
6377;DHT22;3221;48.858;10.128;2024-02-21T14:17:43;9.60;99.90
6377;DHT22;3221;48.858;10.128;2024-02-21T14:20:10;9.60;99.90
6377;DHT22;3221;48.858;10.128;2024-02-21T14:22:41;9.60;99.90
6377;DHT22;3221;48.858;10.128;2024-02-21T14:25:08;9.60;99.90
6377;DHT22;3221;48.858;10.128;2024-02-21T14:27:35;9.70;99.90
6377;DHT22;3221;48.858;10.128;2024-02-21T14:30:05;9.60;99.90
6377;DHT22;3221;48.858;10.128;2024-02-21T14:32:32;9.60;99.90
6377;DHT22;3221;48.858;10.128;2024-02-21T14:34:59;9.50;99.90
6377;DHT22;3221;48.858;10.128;2024-02-21T14:37:32;9.60;99.90
6377;DHT22;3221;48.858;10.128;2024-02-21T14:39:58;9.80;99.90
6377;DHT22;3221;48.858;10.128;2024-02-21T14:42:27;9.50;99.90
6377;DHT22;3221;48.858;10.128;2024-02-21T14:44:54;9.60;99.90
6377;DHT22;3221;48.858;10.128;2024-02-21T14:47:31;9.50;99.90
6377;DHT22;3221;48.858;10.128;2024-02-21T14:49:59;9.50;99.90
6377;DHT22;3221;48.858;10.128;2024-02-21T14:52:26;9.40;99.90
6377;DHT22;3221;48.858;10.128;2024-02-21T14:54:55;9.40;99.90
6377;DHT22;3221;48.858;10.128;2024-02-21T14:57:22;9.40;99.90
6377;DHT22;3221;48.858;10.128;2024-02-21T14:59:49;9.30;99.90
6377;DHT22;3221;48.858;10.128;2024-02-21T15:02:18;9.50;99.90
6377;DHT22;3221;48.858;10.128;2024-02-21T15:04:45;9.30;99.90
6377;DHT22;3221;48.858;10.128;2024-02-21T15:07:12;9.40;99.90
6377;DHT22;3221;48.858;10.128;2024-02-21T15:09:39;9.40;99.90
6377;DHT22;3221;48.858;10.128;2024-02-21T15:12:06;9.40;99.90
6377;DHT22;3221;48.858;10.128;2024-02-21T15:14:33;9.30;99.90
6377;DHT22;3221;48.858;10.128;2024-02-21T15:17:00;9.30;99.90
6377;DHT22;3221;48.858;10.128;2024-02-21T15:19:27;9.40;99.90
6377;DHT22;3221;48.858;10.128;2024-02-21T15:21:55;9.30;99.90
6377;DHT22;3221;48.858;10.128;2024-02-21T15:24:21;9.20;99.90
6377;DHT22;3221;48.858;10.128;2024-02-21T15:26:48;9.40;99.90
6377;DHT22;3221;48.858;10.128;2024-02-21T15:29:15;9.10;99.90
6377;DHT22;3221;48.858;10.128;2024-02-21T15:31:42;9.20;99.90
6377;DHT22;3221;48.858;10.128;2024-02-21T15:34:13;9.20;99.90
6377;DHT22;3221;48.858;10.128;2024-02-21T15:36:44;9.20;99.90
6377;DHT22;3221;48.858;10.128;2024-02-21T15:39:11;9.20;99.90
6377;DHT22;3221;48.858;10.128;2024-02-21T15:41:39;9.20;99.90
6377;DHT22;3221;48.858;10.128;2024-02-21T15:44:06;9.20;99.90
6377;DHT22;3221;48.858;10.128;2024-02-21T15:46:33;9.20;99.90
6377;DHT22;3221;48.858;10.128;2024-02-21T15:49:03;9.40;99.90
6377;DHT22;3221;48.858;10.128;2024-02-21T15:51:30;9.10;99.90
6377;DHT22;3221;48.858;10.128;2024-02-21T15:53:58;9.20;99.90
6377;DHT22;3221;48.858;10.128;2024-02-21T15:56:25;9.20;99.90
6377;DHT22;3221;48.858;10.128;2024-02-21T15:58:53;9.10;99.90
6377;DHT22;3221;48.858;10.128;2024-02-21T16:01:22;9.10;99.90
6377;DHT22;3221;48.858;10.128;2024-02-21T16:03:51;9.20;99.90
6377;DHT22;3221;48.858;10.128;2024-02-21T16:06:18;9.30;99.90
6377;DHT22;3221;48.858;10.128;2024-02-21T16:08:45;9.30;99.90
6377;DHT22;3221;48.858;10.128;2024-02-21T16:11:14;9.20;99.90